ADDS METAR Data INFO
IDs: Format: Raw Decoded Include TAF

Data at: 1211 UTC 29 May 2015

Region: TOP
KATL 291156Z 11006KT 2SM BR BKN004 BKN250 19/18 A3020 RMK AO2 SFC VIS 6 CIG 003V005

KBOS 291154Z 35005KT 10SM FEW250 21/14 A3029 RMK AO2 SLP256 T02110139 10211 20178 51015

KBWI 291154Z 08012G21KT 10SM FEW060 SCT080 SCT140 SCT250 22/14 A3027 RMK AO2 SLP248 T02220144 10228 20211 53017

KCLE 291151Z 16006KT 10SM SCT110 BKN250 21/14 A3020 RMK AO2 SLP223 T02110139 10211 20161 50001

KCLT 291152Z 18003KT 10SM SCT075 OVC250 21/17 A3025 RMK AO2 SLP236 T02110172 10222 20194 53022 $

KCVG 291152Z 14007KT 10SM BKN150 BKN250 21/19 A3016 RMK AO2 SLP204 60021 70021 T02060189 10211 20189 53007

KDCA 291152Z 07010KT 10SM FEW020 SCT060 SCT250 24/17 A3026 RMK AO2 SLP247 T02390172 10250 20233 53017

KDEN 291153Z 02003KT 10SM SCT050 BKN150 BKN200 11/07 A3016 RMK AO2 SLP164 SHRA DSNT N 70002 T01060072 10128 20083 53005

KDFW 291153Z 00000KT 10SM BKN021 BKN150 OVC250 19/19 A2984 RMK AO2 RAE1055 SLP098 P0000 60224 70376 T01890189 10189 20183 56020

KDTW 291153Z COR 12003KT 10SM SCT140 OVC220 20/15 A3016 RMK AO2 SLP208 60000 T02000150 10200 20172 58004 $

KEWR 291151Z 02010KT 10SM FEW250 21/13 A3030 RMK AO2 SLP259 T02110133 10211 20172 51014 $

KFLL 291153Z 08008KT 10SM SCT032 BKN250 26/20 A3004 RMK AO2 SLP172 T02560200 10256 20239 53005

KIAD 291152Z 07006KT 10SM FEW014 SCT090 22/16 A3026 RMK AO2 SLP244 T02220161 10228 20200 53016

KIAH 291153Z COR 24004G15KT 4SM -RA BR SCT012 BKN040 OVC070 23/20 A3000 RMK AO2 RAB39 SLP157 P0000 60000 T02280200 10256 20228 53012

KJFK 291151Z 02010KT 10SM FEW250 21/12 A3030 RMK AO2 SLP260 T02110122 10211 20178 51013

KLAS 291156Z 24005KT 10SM FEW250 24/01 A2987 RMK AO2 SLP088 T02440006 10306 20244 53010

KLAX 291153Z 14003KT 7SM OVC010 15/13 A2994 RMK AO2 SLP138 T01500133 10150 20144 56004

KLGA 291151Z 05007KT 10SM CLR 19/12 A3030 RMK AO2 SLP259 T01940122 10206 20178 51014

KMCO 291153Z 08006KT 10SM CLR 23/18 A3009 RMK AO2 SLP188 T02330183 10233 20200 53005

KMDW 291153Z 17008KT 9SM FEW120 SCT200 BKN250 23/18 A3003 RMK AO2 SLP158 T02280183 10228 20217 55003

KMEM 291154Z 15005KT 8SM BKN004 BKN250 22/19 A3006 RMK AO2 SLP176 T02170194 10233 20206 51018

KMIA 291153Z 05004KT 10SM FEW030 FEW300 26/18 A3005 RMK AO2 SLP174 T02610178 10261 20228 53005

KMSP 291207Z 19003KT 8SM SCT016 SCT024 BKN037 BKN250 19/17 A2987 RMK AO2 T01890172

KORD 291151Z 17004KT 9SM FEW050 SCT130 BKN240 21/17 A3002 RMK AO2 SLP162 T02060172 10206 20172 55003

KPDX 291153Z 32006KT 10SM FEW100 FEW250 14/12 A2999 RMK AO2 SLP152 T01440117 10200 20144 56003

KPHL 291154Z 06007KT 10SM FEW100 22/13 A3029 RMK AO2 SLP257 T02220128 10233 20189 51012 $

KPHX 291151Z 09005KT 10SM SCT250 23/04 A2986 RMK AO2 SLP093 T02330044 10306 20233 53006

KPIT 291151Z 11004KT 10SM FEW100 BKN250 19/13 A3023 RMK AO2 SLP237 T01890133 10189 20156 51007

KSAN 291151Z 00000KT 10SM OVC011 16/13 A2996 RMK AO2 SLP143 T01610128 10172 20161 56004 $

KSEA 291153Z 00000KT 10SM FEW170 BKN240 14/12 A3000 RMK AO2 SLP164 T01390117 10194 20133 51003 $

KSFO 291156Z 25006KT 10SM FEW004 BKN007 OVC010 12/10 A2998 RMK AO2 SLP153 T01220100 10122 20117 58008

KSLC 291153Z 15007KT 10SM CLR 11/07 A3016 RMK AO2 SLP179 70010 T01110067 10144 20106 53004

KSTL 291151Z 17009KT 10SM FEW015 BKN070 OVC250 23/19 A3003 RMK AO2 SLP157 ACC SE T02280189 10233 20222 53014

KTPA 291153Z 05003KT 10SM FEW250 23/17 A3010 RMK AO2 SLP191 T02280172 10233 20211 53008